sensor_id;sensor_type;location;lat;lon;timestamp;temperature;humidity
26691;DHT22;14307;51.718;8.938;2023-12-14T00:01:54;6.50;99.90
26691;DHT22;14307;51.718;8.938;2023-12-14T00:04:20;6.60;99.90
26691;DHT22;14307;51.718;8.938;2023-12-14T00:06:47;6.60;99.90
26691;DHT22;14307;51.718;8.938;2023-12-14T00:09:14;6.60;99.90
26691;DHT22;14307;51.718;8.938;2023-12-14T00:11:41;6.50;99.90
26691;DHT22;14307;51.718;8.938;2023-12-14T00:14:07;6.40;99.90
26691;DHT22;14307;51.718;8.938;2023-12-14T00:16:34;6.30;99.90
26691;DHT22;14307;51.718;8.938;2023-12-14T00:19:01;6.30;99.90
26691;DHT22;14307;51.718;8.938;2023-12-14T00:21:29;6.30;99.90
26691;DHT22;14307;51.718;8.938;2023-12-14T00:23:56;6.30;99.90
26691;DHT22;14307;51.718;8.938;2023-12-14T00:26:23;6.20;99.90
26691;DHT22;14307;51.718;8.938;2023-12-14T00:28:49;6.20;99.90
26691;DHT22;14307;51.718;8.938;2023-12-14T00:31:19;6.30;99.90
26691;DHT22;14307;51.718;8.938;2023-12-14T00:33:46;6.20;99.90
26691;DHT22;14307;51.718;8.938;2023-12-14T00:36:19;6.20;99.90
26691;DHT22;14307;51.718;8.938;2023-12-14T00:38:46;6.20;99.90
26691;DHT22;14307;51.718;8.938;2023-12-14T00:41:13;6.10;99.90
26691;DHT22;14307;51.718;8.938;2023-12-14T00:43:40;6.10;99.90
26691;DHT22;14307;51.718;8.938;2023-12-14T00:46:07;6.10;99.90
26691;DHT22;14307;51.718;8.938;2023-12-14T00:48:34;6.20;99.90
26691;DHT22;14307;51.718;8.938;2023-12-14T00:51:01;6.20;99.90
26691;DHT22;14307;51.718;8.938;2023-12-14T00:53:28;6.10;99.90
26691;DHT22;14307;51.718;8.938;2023-12-14T00:55:54;6.10;99.90
26691;DHT22;14307;51.718;8.938;2023-12-14T00:58:21;6.20;99.90
26691;DHT22;14307;51.718;8.938;2023-12-14T01:00:48;6.30;99.90
26691;DHT22;14307;51.718;8.938;2023-12-14T01:03:14;6.20;99.90
26691;DHT22;14307;51.718;8.938;2023-12-14T01:05:42;6.10;99.90
26691;DHT22;14307;51.718;8.938;2023-12-14T01:08:08;6.00;99.90
26691;DHT22;14307;51.718;8.938;2023-12-14T01:10:35;6.00;99.90
26691;DHT22;14307;51.718;8.938;2023-12-14T01:13:02;6.00;99.90
26691;DHT22;14307;51.718;8.938;2023-12-14T01:15:29;6.00;99.90
26691;DHT22;14307;51.718;8.938;2023-12-14T01:17:56;6.10;99.90
26691;DHT22;14307;51.718;8.938;2023-12-14T01:20:23;6.10;99.90
26691;DHT22;14307;51.718;8.938;2023-12-14T01:22:50;6.10;99.90
26691;DHT22;14307;51.718;8.938;2023-12-14T01:25:16;6.10;99.90
26691;DHT22;14307;51.718;8.938;2023-12-14T01:27:44;6.10;99.90
26691;DHT22;14307;51.718;8.938;2023-12-14T01:30:11;6.00;99.90
26691;DHT22;14307;51.718;8.938;2023-12-14T01:32:38;6.00;99.90
26691;DHT22;14307;51.718;8.938;2023-12-14T01:35:05;5.90;99.90
26691;DHT22;14307;51.718;8.938;2023-12-14T01:37:32;5.90;99.90
26691;DHT22;14307;51.718;8.938;2023-12-14T01:39:59;6.10;99.90
26691;DHT22;14307;51.718;8.938;2023-12-14T01:42:26;6.00;99.90
26691;DHT22;14307;51.718;8.938;2023-12-14T01:44:52;5.90;99.90
26691;DHT22;14307;51.718;8.938;2023-12-14T01:47:19;5.90;99.90
26691;DHT22;14307;51.718;8.938;2023-12-14T01:49:46;5.90;99.90
26691;DHT22;14307;51.718;8.938;2023-12-14T01:52:13;5.90;99.90
26691;DHT22;14307;51.718;8.938;2023-12-14T01:54:40;5.90;99.90
26691;DHT22;14307;51.718;8.938;2023-12-14T01:57:06;5.90;99.90
26691;DHT22;14307;51.718;8.938;2023-12-14T01:59:33;5.80;99.90
26691;DHT22;14307;51.718;8.938;2023-12-14T02:02:00;5.80;99.90
26691;DHT22;14307;51.718;8.938;2023-12-14T02:04:29;5.70;99.90
26691;DHT22;14307;51.718;8.938;2023-12-14T02:06:57;5.70;99.90
26691;DHT22;14307;51.718;8.938;2023-12-14T02:09:24;5.70;99.90
26691;DHT22;14307;51.718;8.938;2023-12-14T02:11:51;5.70;99.90
26691;DHT22;14307;51.718;8.938;2023-12-14T02:14:21;5.80;99.90
26691;DHT22;14307;51.718;8.938;2023-12-14T02:16:48;5.80;99.90
26691;DHT22;14307;51.718;8.938;2023-12-14T02:19:15;5.70;99.90
26691;DHT22;14307;51.718;8.938;2023-12-14T02:21:42;5.80;99.90
26691;DHT22;14307;51.718;8.938;2023-12-14T02:24:09;5.70;99.90
26691;DHT22;14307;51.718;8.938;2023-12-14T02:26:36;5.60;99.90
26691;DHT22;14307;51.718;8.938;2023-12-14T02:29:03;5.60;99.90
26691;DHT22;14307;51.718;8.938;2023-12-14T02:31:30;5.60;99.90
26691;DHT22;14307;51.718;8.938;2023-12-14T02:33:57;5.60;99.90
26691;DHT22;14307;51.718;8.938;2023-12-14T02:36:24;5.60;99.90
26691;DHT22;14307;51.718;8.938;2023-12-14T02:38:50;5.60;99.90
26691;DHT22;14307;51.718;8.938;2023-12-14T02:41:17;5.60;99.90
26691;DHT22;14307;51.718;8.938;2023-12-14T02:43:44;5.50;99.90
26691;DHT22;14307;51.718;8.938;2023-12-14T02:46:11;5.40;99.90
26691;DHT22;14307;51.718;8.938;2023-12-14T02:48:42;5.50;99.90
26691;DHT22;14307;51.718;8.938;2023-12-14T02:51:14;5.40;99.90
26691;DHT22;14307;51.718;8.938;2023-12-14T02:53:44;5.30;99.90
26691;DHT22;14307;51.718;8.938;2023-12-14T02:56:10;5.40;99.90
26691;DHT22;14307;51.718;8.938;2023-12-14T02:58:40;5.40;99.90
26691;DHT22;14307;51.718;8.938;2023-12-14T03:01:07;5.40;99.90
26691;DHT22;14307;51.718;8.938;2023-12-14T03:03:34;5.20;99.90
26691;DHT22;14307;51.718;8.938;2023-12-14T03:06:01;5.20;99.90
26691;DHT22;14307;51.718;8.938;2023-12-14T03:08:27;5.30;99.90
26691;DHT22;14307;51.718;8.938;2023-12-14T03:10:54;5.10;99.90
26691;DHT22;14307;51.718;8.938;2023-12-14T03:13:21;5.00;99.90
26691;DHT22;14307;51.718;8.938;2023-12-14T03:15:48;5.00;99.90
26691;DHT22;14307;51.718;8.938;2023-12-14T03:18:16;5.00;99.90
26691;DHT22;14307;51.718;8.938;2023-12-14T03:20:43;5.00;99.90
26691;DHT22;14307;51.718;8.938;2023-12-14T03:23:09;5.00;99.90
26691;DHT22;14307;51.718;8.938;2023-12-14T03:25:36;5.00;99.90
26691;DHT22;14307;51.718;8.938;2023-12-14T03:28:03;5.10;99.90
26691;DHT22;14307;51.718;8.938;2023-12-14T03:30:30;5.10;99.90
26691;DHT22;14307;51.718;8.938;2023-12-14T03:32:57;5.00;99.90
26691;DHT22;14307;51.718;8.938;2023-12-14T03:35:24;5.00;99.90
26691;DHT22;14307;51.718;8.938;2023-12-14T03:37:51;5.00;99.90
26691;DHT22;14307;51.718;8.938;2023-12-14T03:40:17;5.10;99.90
26691;DHT22;14307;51.718;8.938;2023-12-14T03:42:45;5.00;99.90
26691;DHT22;14307;51.718;8.938;2023-12-14T03:45:11;5.00;99.90
26691;DHT22;14307;51.718;8.938;2023-12-14T03:47:38;5.00;99.90
26691;DHT22;14307;51.718;8.938;2023-12-14T03:50:06;4.90;99.90
26691;DHT22;14307;51.718;8.938;2023-12-14T03:52:33;5.00;99.90
26691;DHT22;14307;51.718;8.938;2023-12-14T03:55:01;5.00;99.90
26691;DHT22;14307;51.718;8.938;2023-12-14T03:57:28;4.90;99.90
26691;DHT22;14307;51.718;8.938;2023-12-14T03:59:54;5.00;99.90
26691;DHT22;14307;51.718;8.938;2023-12-14T04:02:21;5.00;99.90
26691;DHT22;14307;51.718;8.938;2023-12-14T04:04:48;5.00;99.90
26691;DHT22;14307;51.718;8.938;2023-12-14T04:07:15;4.90;99.90
26691;DHT22;14307;51.718;8.938;2023-12-14T04:09:43;4.90;99.90
26691;DHT22;14307;51.718;8.938;2023-12-14T04:12:10;4.80;99.90
26691;DHT22;14307;51.718;8.938;2023-12-14T04:14:37;4.80;99.90
26691;DHT22;14307;51.718;8.938;2023-12-14T04:17:04;4.90;99.90
26691;DHT22;14307;51.718;8.938;2023-12-14T04:19:30;4.80;99.90
26691;DHT22;14307;51.718;8.938;2023-12-14T04:21:57;4.90;99.90
26691;DHT22;14307;51.718;8.938;2023-12-14T04:24:24;4.90;99.90
26691;DHT22;14307;51.718;8.938;2023-12-14T04:26:51;4.80;99.90
26691;DHT22;14307;51.718;8.938;2023-12-14T04:29:17;4.70;99.90
26691;DHT22;14307;51.718;8.938;2023-12-14T04:31:44;4.70;99.90
26691;DHT22;14307;51.718;8.938;2023-12-14T04:34:11;4.80;99.90
26691;DHT22;14307;51.718;8.938;2023-12-14T04:36:42;4.70;99.90
26691;DHT22;14307;51.718;8.938;2023-12-14T04:39:09;4.70;99.90
26691;DHT22;14307;51.718;8.938;2023-12-14T04:41:36;4.80;99.90
26691;DHT22;14307;51.718;8.938;2023-12-14T04:44:03;4.70;99.90
26691;DHT22;14307;51.718;8.938;2023-12-14T04:46:30;4.70;99.90
26691;DHT22;14307;51.718;8.938;2023-12-14T04:48:57;4.80;99.90
26691;DHT22;14307;51.718;8.938;2023-12-14T04:51:24;4.80;99.90
26691;DHT22;14307;51.718;8.938;2023-12-14T04:53:51;4.70;99.90
26691;DHT22;14307;51.718;8.938;2023-12-14T04:56:18;4.70;99.90
26691;DHT22;14307;51.718;8.938;2023-12-14T04:58:45;4.70;99.90
26691;DHT22;14307;51.718;8.938;2023-12-14T05:01:12;4.70;99.90
26691;DHT22;14307;51.718;8.938;2023-12-14T05:03:39;4.60;99.90
26691;DHT22;14307;51.718;8.938;2023-12-14T05:06:06;4.50;99.90
26691;DHT22;14307;51.718;8.938;2023-12-14T05:08:34;4.60;99.90
26691;DHT22;14307;51.718;8.938;2023-12-14T05:11:01;4.60;99.90
26691;DHT22;14307;51.718;8.938;2023-12-14T05:13:28;4.60;99.90
26691;DHT22;14307;51.718;8.938;2023-12-14T05:15:54;4.60;99.90
26691;DHT22;14307;51.718;8.938;2023-12-14T05:18:21;4.60;99.90
26691;DHT22;14307;51.718;8.938;2023-12-14T05:20:48;4.60;99.90
26691;DHT22;14307;51.718;8.938;2023-12-14T05:23:15;4.50;99.90
26691;DHT22;14307;51.718;8.938;2023-12-14T05:25:42;4.40;99.90
26691;DHT22;14307;51.718;8.938;2023-12-14T05:28:08;4.40;99.90
26691;DHT22;14307;51.718;8.938;2023-12-14T05:30:35;4.40;99.90
26691;DHT22;14307;51.718;8.938;2023-12-14T05:33:02;4.40;99.90
26691;DHT22;14307;51.718;8.938;2023-12-14T05:35:29;4.40;99.90
26691;DHT22;14307;51.718;8.938;2023-12-14T05:37:56;4.40;99.90
26691;DHT22;14307;51.718;8.938;2023-12-14T05:40:23;4.30;99.90
26691;DHT22;14307;51.718;8.938;2023-12-14T05:42:50;4.40;99.90
26691;DHT22;14307;51.718;8.938;2023-12-14T05:45:17;4.40;99.90
26691;DHT22;14307;51.718;8.938;2023-12-14T05:47:45;4.40;99.90
26691;DHT22;14307;51.718;8.938;2023-12-14T05:50:12;4.40;99.90
26691;DHT22;14307;51.718;8.938;2023-12-14T05:52:39;4.30;99.90
26691;DHT22;14307;51.718;8.938;2023-12-14T05:55:08;4.40;99.90
26691;DHT22;14307;51.718;8.938;2023-12-14T05:57:37;4.40;99.90
26691;DHT22;14307;51.718;8.938;2023-12-14T06:00:05;4.40;99.90
26691;DHT22;14307;51.718;8.938;2023-12-14T06:02:33;4.30;99.90
26691;DHT22;14307;51.718;8.938;2023-12-14T06:05:01;4.40;99.90
26691;DHT22;14307;51.718;8.938;2023-12-14T06:07:27;4.30;99.90
26691;DHT22;14307;51.718;8.938;2023-12-14T06:09:54;4.30;99.90
26691;DHT22;14307;51.718;8.938;2023-12-14T06:12:21;4.40;99.90
26691;DHT22;14307;51.718;8.938;2023-12-14T06:14:48;4.50;99.90
26691;DHT22;14307;51.718;8.938;2023-12-14T06:17:14;4.50;99.90
26691;DHT22;14307;51.718;8.938;2023-12-14T06:19:42;4.40;99.90
26691;DHT22;14307;51.718;8.938;2023-12-14T06:22:09;4.50;99.90
26691;DHT22;14307;51.718;8.938;2023-12-14T06:24:36;4.40;99.90
26691;DHT22;14307;51.718;8.938;2023-12-14T06:27:02;4.40;99.90
26691;DHT22;14307;51.718;8.938;2023-12-14T06:29:30;4.30;99.90
26691;DHT22;14307;51.718;8.938;2023-12-14T06:31:57;4.20;99.90
26691;DHT22;14307;51.718;8.938;2023-12-14T06:34:24;4.20;99.90
26691;DHT22;14307;51.718;8.938;2023-12-14T06:36:52;4.20;99.90
26691;DHT22;14307;51.718;8.938;2023-12-14T06:39:18;4.20;99.90
26691;DHT22;14307;51.718;8.938;2023-12-14T06:41:46;4.30;99.90
26691;DHT22;14307;51.718;8.938;2023-12-14T06:44:13;4.30;99.90
26691;DHT22;14307;51.718;8.938;2023-12-14T06:46:41;4.30;99.90
26691;DHT22;14307;51.718;8.938;2023-12-14T06:49:07;4.30;99.90
26691;DHT22;14307;51.718;8.938;2023-12-14T06:51:34;4.20;99.90
26691;DHT22;14307;51.718;8.938;2023-12-14T06:54:01;4.10;99.90
26691;DHT22;14307;51.718;8.938;2023-12-14T06:56:28;4.10;99.90
26691;DHT22;14307;51.718;8.938;2023-12-14T06:58:54;4.20;99.90
26691;DHT22;14307;51.718;8.938;2023-12-14T07:01:21;4.20;99.90
26691;DHT22;14307;51.718;8.938;2023-12-14T07:03:48;4.20;99.90
26691;DHT22;14307;51.718;8.938;2023-12-14T07:06:16;4.20;99.90
26691;DHT22;14307;51.718;8.938;2023-12-14T07:08:44;4.20;99.90
26691;DHT22;14307;51.718;8.938;2023-12-14T07:11:11;4.20;99.90
26691;DHT22;14307;51.718;8.938;2023-12-14T07:13:38;4.00;99.90
26691;DHT22;14307;51.718;8.938;2023-12-14T07:16:07;4.00;99.90
26691;DHT22;14307;51.718;8.938;2023-12-14T07:18:41;3.90;99.90
26691;DHT22;14307;51.718;8.938;2023-12-14T07:21:08;4.00;99.90
26691;DHT22;14307;51.718;8.938;2023-12-14T07:23:36;3.90;99.90
26691;DHT22;14307;51.718;8.938;2023-12-14T07:26:03;3.90;99.90
26691;DHT22;14307;51.718;8.938;2023-12-14T07:28:33;3.90;99.90
26691;DHT22;14307;51.718;8.938;2023-12-14T07:31:00;3.90;99.90
26691;DHT22;14307;51.718;8.938;2023-12-14T07:33:27;4.00;99.90
26691;DHT22;14307;51.718;8.938;2023-12-14T07:35:54;4.00;99.90
26691;DHT22;14307;51.718;8.938;2023-12-14T07:38:21;4.10;99.90
26691;DHT22;14307;51.718;8.938;2023-12-14T07:40:47;4.00;99.90
26691;DHT22;14307;51.718;8.938;2023-12-14T07:43:16;3.90;99.90
26691;DHT22;14307;51.718;8.938;2023-12-14T07:45:43;3.80;99.90
26691;DHT22;14307;51.718;8.938;2023-12-14T07:48:10;3.90;99.90
26691;DHT22;14307;51.718;8.938;2023-12-14T07:50:37;4.00;99.90
26691;DHT22;14307;51.718;8.938;2023-12-14T07:53:05;4.00;99.90
26691;DHT22;14307;51.718;8.938;2023-12-14T07:55:32;4.10;99.90
26691;DHT22;14307;51.718;8.938;2023-12-14T07:57:59;4.00;99.90
26691;DHT22;14307;51.718;8.938;2023-12-14T08:00:25;4.00;99.90
26691;DHT22;14307;51.718;8.938;2023-12-14T08:02:52;3.90;99.90
26691;DHT22;14307;51.718;8.938;2023-12-14T08:05:19;3.70;99.90
26691;DHT22;14307;51.718;8.938;2023-12-14T08:07:46;3.70;99.90
26691;DHT22;14307;51.718;8.938;2023-12-14T08:10:14;3.70;99.90
26691;DHT22;14307;51.718;8.938;2023-12-14T08:12:40;3.80;99.90
26691;DHT22;14307;51.718;8.938;2023-12-14T08:15:07;3.80;99.90
26691;DHT22;14307;51.718;8.938;2023-12-14T08:17:35;3.90;99.90
26691;DHT22;14307;51.718;8.938;2023-12-14T08:20:02;3.90;99.90
26691;DHT22;14307;51.718;8.938;2023-12-14T08:22:31;3.90;99.90
26691;DHT22;14307;51.718;8.938;2023-12-14T08:24:58;3.80;99.90
26691;DHT22;14307;51.718;8.938;2023-12-14T08:27:24;3.70;99.90
26691;DHT22;14307;51.718;8.938;2023-12-14T08:29:51;3.60;99.90
26691;DHT22;14307;51.718;8.938;2023-12-14T08:32:18;3.50;99.90
26691;DHT22;14307;51.718;8.938;2023-12-14T08:34:45;3.60;99.90
26691;DHT22;14307;51.718;8.938;2023-12-14T08:37:12;3.40;99.90
26691;DHT22;14307;51.718;8.938;2023-12-14T08:39:38;3.40;99.90
26691;DHT22;14307;51.718;8.938;2023-12-14T08:42:05;3.30;99.90
26691;DHT22;14307;51.718;8.938;2023-12-14T08:44:32;3.30;99.90
26691;DHT22;14307;51.718;8.938;2023-12-14T08:46:59;3.30;99.90
26691;DHT22;14307;51.718;8.938;2023-12-14T08:49:26;3.40;99.90
26691;DHT22;14307;51.718;8.938;2023-12-14T08:51:53;3.30;99.90
26691;DHT22;14307;51.718;8.938;2023-12-14T08:54:20;3.40;99.90
26691;DHT22;14307;51.718;8.938;2023-12-14T08:56:47;3.50;99.90
26691;DHT22;14307;51.718;8.938;2023-12-14T08:59:14;3.50;99.90
26691;DHT22;14307;51.718;8.938;2023-12-14T09:01:41;3.40;99.90
26691;DHT22;14307;51.718;8.938;2023-12-14T09:04:08;3.40;99.90
26691;DHT22;14307;51.718;8.938;2023-12-14T09:06:35;3.40;99.90
26691;DHT22;14307;51.718;8.938;2023-12-14T09:09:02;3.50;99.90
26691;DHT22;14307;51.718;8.938;2023-12-14T09:11:29;3.50;99.90
26691;DHT22;14307;51.718;8.938;2023-12-14T09:13:57;3.50;99.90
26691;DHT22;14307;51.718;8.938;2023-12-14T09:16:23;3.50;99.90
26691;DHT22;14307;51.718;8.938;2023-12-14T09:18:50;3.40;99.90
26691;DHT22;14307;51.718;8.938;2023-12-14T09:21:17;3.40;99.90
26691;DHT22;14307;51.718;8.938;2023-12-14T09:23:48;3.40;99.90
26691;DHT22;14307;51.718;8.938;2023-12-14T09:26:15;3.30;99.90
26691;DHT22;14307;51.718;8.938;2023-12-14T09:28:42;3.40;99.90
26691;DHT22;14307;51.718;8.938;2023-12-14T09:31:09;3.40;99.90
26691;DHT22;14307;51.718;8.938;2023-12-14T09:33:36;3.40;99.90
26691;DHT22;14307;51.718;8.938;2023-12-14T09:36:04;3.40;99.90
26691;DHT22;14307;51.718;8.938;2023-12-14T09:38:31;3.30;99.90
26691;DHT22;14307;51.718;8.938;2023-12-14T09:40:57;3.40;99.90
26691;DHT22;14307;51.718;8.938;2023-12-14T09:43:24;3.50;99.90
26691;DHT22;14307;51.718;8.938;2023-12-14T09:45:52;3.60;99.90
26691;DHT22;14307;51.718;8.938;2023-12-14T09:48:19;3.60;99.90
26691;DHT22;14307;51.718;8.938;2023-12-14T09:50:47;3.60;99.90
26691;DHT22;14307;51.718;8.938;2023-12-14T09:53:15;3.60;99.90
26691;DHT22;14307;51.718;8.938;2023-12-14T09:55:42;3.70;99.90
26691;DHT22;14307;51.718;8.938;2023-12-14T09:58:09;3.60;99.90
26691;DHT22;14307;51.718;8.938;2023-12-14T10:00:39;3.60;99.90
26691;DHT22;14307;51.718;8.938;2023-12-14T10:03:27;3.70;99.90
26691;DHT22;14307;51.718;8.938;2023-12-14T10:05:55;3.70;99.90
26691;DHT22;14307;51.718;8.938;2023-12-14T10:08:25;3.70;99.90
26691;DHT22;14307;51.718;8.938;2023-12-14T10:10:53;3.60;99.90
26691;DHT22;14307;51.718;8.938;2023-12-14T10:13:44;3.60;99.90
26691;DHT22;14307;51.718;8.938;2023-12-14T10:16:11;3.60;99.90
26691;DHT22;14307;51.718;8.938;2023-12-14T10:18:37;3.70;99.90
26691;DHT22;14307;51.718;8.938;2023-12-14T10:21:08;3.70;99.90
26691;DHT22;14307;51.718;8.938;2023-12-14T10:23:35;3.80;99.90
26691;DHT22;14307;51.718;8.938;2023-12-14T10:26:04;3.80;99.90
26691;DHT22;14307;51.718;8.938;2023-12-14T10:28:31;3.80;99.90
26691;DHT22;14307;51.718;8.938;2023-12-14T10:30:58;3.80;99.90
26691;DHT22;14307;51.718;8.938;2023-12-14T10:33:25;3.80;99.90
26691;DHT22;14307;51.718;8.938;2023-12-14T10:35:53;3.80;99.90
26691;DHT22;14307;51.718;8.938;2023-12-14T10:38:20;3.80;99.90
26691;DHT22;14307;51.718;8.938;2023-12-14T10:40:47;3.80;99.90
26691;DHT22;14307;51.718;8.938;2023-12-14T10:43:15;3.90;99.90
26691;DHT22;14307;51.718;8.938;2023-12-14T10:46:05;3.80;99.90
26691;DHT22;14307;51.718;8.938;2023-12-14T10:48:35;3.80;99.90
26691;DHT22;14307;51.718;8.938;2023-12-14T10:51:10;3.70;99.90
26691;DHT22;14307;51.718;8.938;2023-12-14T10:53:38;3.60;99.90
26691;DHT22;14307;51.718;8.938;2023-12-14T10:56:07;3.50;99.90
26691;DHT22;14307;51.718;8.938;2023-12-14T10:58:51;3.60;99.90
26691;DHT22;14307;51.718;8.938;2023-12-14T11:01:21;3.70;99.90
26691;DHT22;14307;51.718;8.938;2023-12-14T11:03:48;3.80;99.90
26691;DHT22;14307;51.718;8.938;2023-12-14T11:06:27;3.80;99.90
26691;DHT22;14307;51.718;8.938;2023-12-14T11:09:05;3.80;99.90
26691;DHT22;14307;51.718;8.938;2023-12-14T11:14:26;3.70;99.90
26691;DHT22;14307;51.718;8.938;2023-12-14T11:17:01;3.60;99.90
26691;DHT22;14307;51.718;8.938;2023-12-14T11:19:32;3.50;99.90
26691;DHT22;14307;51.718;8.938;2023-12-14T11:24:32;3.40;99.90
26691;DHT22;14307;51.718;8.938;2023-12-14T11:27:05;3.50;99.90
26691;DHT22;14307;51.718;8.938;2023-12-14T11:29:32;3.60;99.90
26691;DHT22;14307;51.718;8.938;2023-12-14T11:32:00;3.70;99.90
26691;DHT22;14307;51.718;8.938;2023-12-14T11:34:27;3.60;99.90
26691;DHT22;14307;51.718;8.938;2023-12-14T11:36:57;3.70;99.90
26691;DHT22;14307;51.718;8.938;2023-12-14T11:39:25;3.70;99.90
26691;DHT22;14307;51.718;8.938;2023-12-14T11:42:00;3.60;99.90
26691;DHT22;14307;51.718;8.938;2023-12-14T11:44:27;3.60;99.90
26691;DHT22;14307;51.718;8.938;2023-12-14T11:46:54;3.70;99.90
26691;DHT22;14307;51.718;8.938;2023-12-14T11:49:27;3.70;99.90
26691;DHT22;14307;51.718;8.938;2023-12-14T11:51:57;3.60;99.90
26691;DHT22;14307;51.718;8.938;2023-12-14T11:54:24;3.50;99.90
26691;DHT22;14307;51.718;8.938;2023-12-14T11:56:52;3.50;99.90
26691;DHT22;14307;51.718;8.938;2023-12-14T11:59:19;3.60;99.90
26691;DHT22;14307;51.718;8.938;2023-12-14T12:01:58;3.60;99.90
26691;DHT22;14307;51.718;8.938;2023-12-14T12:04:26;3.60;99.90
26691;DHT22;14307;51.718;8.938;2023-12-14T12:07:05;3.70;99.90
26691;DHT22;14307;51.718;8.938;2023-12-14T12:09:37;3.50;99.90
26691;DHT22;14307;51.718;8.938;2023-12-14T12:12:06;3.50;99.90
26691;DHT22;14307;51.718;8.938;2023-12-14T12:14:38;3.40;99.90
26691;DHT22;14307;51.718;8.938;2023-12-14T12:17:05;3.50;99.90
26691;DHT22;14307;51.718;8.938;2023-12-14T12:19:39;3.50;99.90
26691;DHT22;14307;51.718;8.938;2023-12-14T12:22:14;3.50;99.90
26691;DHT22;14307;51.718;8.938;2023-12-14T12:24:43;3.50;99.90
26691;DHT22;14307;51.718;8.938;2023-12-14T12:27:13;3.50;99.90
26691;DHT22;14307;51.718;8.938;2023-12-14T12:29:44;3.50;99.90
26691;DHT22;14307;51.718;8.938;2023-12-14T12:32:29;3.60;99.90
26691;DHT22;14307;51.718;8.938;2023-12-14T12:35:07;3.50;99.90
26691;DHT22;14307;51.718;8.938;2023-12-14T12:37:38;3.50;99.90
26691;DHT22;14307;51.718;8.938;2023-12-14T12:40:08;3.60;99.90
26691;DHT22;14307;51.718;8.938;2023-12-14T12:42:51;3.50;99.90
26691;DHT22;14307;51.718;8.938;2023-12-14T12:45:25;3.50;99.90
26691;DHT22;14307;51.718;8.938;2023-12-14T12:48:04;3.50;99.90
26691;DHT22;14307;51.718;8.938;2023-12-14T12:50:41;3.50;99.90
26691;DHT22;14307;51.718;8.938;2023-12-14T12:53:10;3.50;99.90
26691;DHT22;14307;51.718;8.938;2023-12-14T12:55:40;3.60;99.90
26691;DHT22;14307;51.718;8.938;2023-12-14T12:58:16;3.60;99.90
26691;DHT22;14307;51.718;8.938;2023-12-14T13:00:46;3.60;99.90
26691;DHT22;14307;51.718;8.938;2023-12-14T13:03:14;3.60;99.90
26691;DHT22;14307;51.718;8.938;2023-12-14T13:05:47;3.60;99.90
26691;DHT22;14307;51.718;8.938;2023-12-14T13:08:48;3.70;99.90
26691;DHT22;14307;51.718;8.938;2023-12-14T13:11:31;3.70;99.90
26691;DHT22;14307;51.718;8.938;2023-12-14T13:14:01;3.60;99.90
26691;DHT22;14307;51.718;8.938;2023-12-14T13:16:35;3.50;99.90
26691;DHT22;14307;51.718;8.938;2023-12-14T13:19:02;3.60;99.90
26691;DHT22;14307;51.718;8.938;2023-12-14T13:21:30;3.50;99.90
26691;DHT22;14307;51.718;8.938;2023-12-14T13:23:57;3.60;99.90
26691;DHT22;14307;51.718;8.938;2023-12-14T13:26:24;3.70;99.90
26691;DHT22;14307;51.718;8.938;2023-12-14T13:28:52;3.80;99.90
26691;DHT22;14307;51.718;8.938;2023-12-14T13:31:19;3.80;99.90
26691;DHT22;14307;51.718;8.938;2023-12-14T13:33:47;3.80;99.90
26691;DHT22;14307;51.718;8.938;2023-12-14T13:36:14;3.80;99.90
26691;DHT22;14307;51.718;8.938;2023-12-14T13:38:42;4.00;99.90
26691;DHT22;14307;51.718;8.938;2023-12-14T13:41:09;4.00;99.90
26691;DHT22;14307;51.718;8.938;2023-12-14T13:43:36;4.00;99.90
26691;DHT22;14307;51.718;8.938;2023-12-14T13:46:03;3.90;99.90
26691;DHT22;14307;51.718;8.938;2023-12-14T13:48:46;4.00;99.90
26691;DHT22;14307;51.718;8.938;2023-12-14T13:51:16;4.00;99.90
26691;DHT22;14307;51.718;8.938;2023-12-14T13:53:49;4.00;99.90
26691;DHT22;14307;51.718;8.938;2023-12-14T13:56:16;3.90;99.90
26691;DHT22;14307;51.718;8.938;2023-12-14T13:58:47;4.00;99.90
26691;DHT22;14307;51.718;8.938;2023-12-14T14:01:14;4.00;99.90
26691;DHT22;14307;51.718;8.938;2023-12-14T14:03:42;4.00;99.90
26691;DHT22;14307;51.718;8.938;2023-12-14T14:06:14;4.10;99.90
26691;DHT22;14307;51.718;8.938;2023-12-14T14:08:51;4.10;99.90
26691;DHT22;14307;51.718;8.938;2023-12-14T14:11:18;4.10;99.90
26691;DHT22;14307;51.718;8.938;2023-12-14T14:13:46;4.00;99.90
26691;DHT22;14307;51.718;8.938;2023-12-14T14:16:16;4.10;99.90
26691;DHT22;14307;51.718;8.938;2023-12-14T14:18:49;4.10;99.90
26691;DHT22;14307;51.718;8.938;2023-12-14T14:21:21;4.20;99.90
26691;DHT22;14307;51.718;8.938;2023-12-14T14:23:48;4.10;99.90
26691;DHT22;14307;51.718;8.938;2023-12-14T14:26:18;4.10;99.90
26691;DHT22;14307;51.718;8.938;2023-12-14T14:28:54;4.10;99.90
26691;DHT22;14307;51.718;8.938;2023-12-14T14:31:32;4.10;99.90
26691;DHT22;14307;51.718;8.938;2023-12-14T14:34:09;4.10;99.90
26691;DHT22;14307;51.718;8.938;2023-12-14T14:36:39;4.10;99.90
26691;DHT22;14307;51.718;8.938;2023-12-14T14:39:09;4.20;99.90
26691;DHT22;14307;51.718;8.938;2023-12-14T14:41:44;4.20;99.90
26691;DHT22;14307;51.718;8.938;2023-12-14T14:44:19;4.20;99.90
26691;DHT22;14307;51.718;8.938;2023-12-14T14:46:53;4.10;99.90
26691;DHT22;14307;51.718;8.938;2023-12-14T14:49:25;4.20;99.90
26691;DHT22;14307;51.718;8.938;2023-12-14T14:52:02;4.00;99.90
26691;DHT22;14307;51.718;8.938;2023-12-14T14:54:35;3.90;99.90
26691;DHT22;14307;51.718;8.938;2023-12-14T14:57:06;3.90;99.90
26691;DHT22;14307;51.718;8.938;2023-12-14T14:59:36;3.90;99.90
26691;DHT22;14307;51.718;8.938;2023-12-14T15:02:10;3.90;99.90
26691;DHT22;14307;51.718;8.938;2023-12-14T15:04:39;3.90;99.90
26691;DHT22;14307;51.718;8.938;2023-12-14T15:07:12;3.80;99.90
26691;DHT22;14307;51.718;8.938;2023-12-14T15:09:39;3.80;99.90
26691;DHT22;14307;51.718;8.938;2023-12-14T15:12:11;3.80;99.90
26691;DHT22;14307;51.718;8.938;2023-12-14T15:14:39;3.70;99.90
26691;DHT22;14307;51.718;8.938;2023-12-14T15:17:06;3.70;99.90
26691;DHT22;14307;51.718;8.938;2023-12-14T15:19:44;3.80;99.90
26691;DHT22;14307;51.718;8.938;2023-12-14T15:22:13;3.80;99.90
26691;DHT22;14307;51.718;8.938;2023-12-14T15:24:51;3.80;99.90
26691;DHT22;14307;51.718;8.938;2023-12-14T15:27:19;3.80;99.90
26691;DHT22;14307;51.718;8.938;2023-12-14T15:29:46;3.90;99.90
26691;DHT22;14307;51.718;8.938;2023-12-14T15:32:13;3.90;99.90
26691;DHT22;14307;51.718;8.938;2023-12-14T15:34:42;3.90;99.90
26691;DHT22;14307;51.718;8.938;2023-12-14T15:37:12;3.90;99.90
26691;DHT22;14307;51.718;8.938;2023-12-14T15:39:40;4.00;99.90
26691;DHT22;14307;51.718;8.938;2023-12-14T15:42:07;4.00;99.90
26691;DHT22;14307;51.718;8.938;2023-12-14T15:44:39;3.90;99.90
26691;DHT22;14307;51.718;8.938;2023-12-14T15:47:07;3.90;99.90
26691;DHT22;14307;51.718;8.938;2023-12-14T15:49:37;4.00;99.90
26691;DHT22;14307;51.718;8.938;2023-12-14T15:52:05;4.00;99.90
26691;DHT22;14307;51.718;8.938;2023-12-14T15:54:31;4.00;99.90
26691;DHT22;14307;51.718;8.938;2023-12-14T15:57:00;4.10;99.90
26691;DHT22;14307;51.718;8.938;2023-12-14T15:59:30;4.00;99.90